sensor_id;sensor_type;location;lat;lon;timestamp;temperature;humidity
18266;DHT22;9259;48.194;16.322;2022-12-07T00:01:46;5.20;99.90
18266;DHT22;9259;48.194;16.322;2022-12-07T00:04:16;5.20;99.90
18266;DHT22;9259;48.194;16.322;2022-12-07T00:06:50;5.20;99.90
18266;DHT22;9259;48.194;16.322;2022-12-07T00:09:19;5.30;99.90
18266;DHT22;9259;48.194;16.322;2022-12-07T00:11:49;5.20;99.90
18266;DHT22;9259;48.194;16.322;2022-12-07T00:14:18;5.20;99.90
18266;DHT22;9259;48.194;16.322;2022-12-07T00:16:49;5.20;99.90
18266;DHT22;9259;48.194;16.322;2022-12-07T00:19:17;5.20;99.90
18266;DHT22;9259;48.194;16.322;2022-12-07T00:21:46;5.20;99.90
18266;DHT22;9259;48.194;16.322;2022-12-07T00:24:14;5.20;99.90
18266;DHT22;9259;48.194;16.322;2022-12-07T00:26:42;5.20;99.90
18266;DHT22;9259;48.194;16.322;2022-12-07T00:29:15;5.20;99.90
18266;DHT22;9259;48.194;16.322;2022-12-07T00:31:44;5.20;99.90
18266;DHT22;9259;48.194;16.322;2022-12-07T00:34:14;5.20;99.90
18266;DHT22;9259;48.194;16.322;2022-12-07T00:36:43;5.20;99.90
18266;DHT22;9259;48.194;16.322;2022-12-07T00:39:12;5.20;99.90
18266;DHT22;9259;48.194;16.322;2022-12-07T00:41:40;5.20;99.90
18266;DHT22;9259;48.194;16.322;2022-12-07T00:44:08;5.20;99.90
18266;DHT22;9259;48.194;16.322;2022-12-07T00:46:36;5.20;99.90
18266;DHT22;9259;48.194;16.322;2022-12-07T00:49:04;5.20;99.90
18266;DHT22;9259;48.194;16.322;2022-12-07T00:51:32;5.20;99.90
18266;DHT22;9259;48.194;16.322;2022-12-07T00:54:00;5.20;99.90
18266;DHT22;9259;48.194;16.322;2022-12-07T00:56:30;5.20;99.90
18266;DHT22;9259;48.194;16.322;2022-12-07T00:58:59;5.20;99.90
18266;DHT22;9259;48.194;16.322;2022-12-07T01:01:31;5.20;99.90
18266;DHT22;9259;48.194;16.322;2022-12-07T01:04:00;5.10;99.90
18266;DHT22;9259;48.194;16.322;2022-12-07T01:06:29;5.10;99.90
18266;DHT22;9259;48.194;16.322;2022-12-07T01:08:57;5.10;99.90
18266;DHT22;9259;48.194;16.322;2022-12-07T01:11:27;5.10;99.90
18266;DHT22;9259;48.194;16.322;2022-12-07T01:13:58;5.00;99.90
18266;DHT22;9259;48.194;16.322;2022-12-07T01:16:29;5.00;99.90
18266;DHT22;9259;48.194;16.322;2022-12-07T01:18:58;5.00;99.90
18266;DHT22;9259;48.194;16.322;2022-12-07T01:21:28;5.00;99.90
18266;DHT22;9259;48.194;16.322;2022-12-07T01:24:01;5.00;99.90
18266;DHT22;9259;48.194;16.322;2022-12-07T01:26:30;5.00;99.90
18266;DHT22;9259;48.194;16.322;2022-12-07T01:28:58;5.00;99.90
18266;DHT22;9259;48.194;16.322;2022-12-07T01:31:27;5.00;99.90
18266;DHT22;9259;48.194;16.322;2022-12-07T01:33:58;5.00;99.90
18266;DHT22;9259;48.194;16.322;2022-12-07T01:36:28;5.10;99.90
18266;DHT22;9259;48.194;16.322;2022-12-07T01:38:59;5.10;99.90
18266;DHT22;9259;48.194;16.322;2022-12-07T01:41:30;5.10;99.90
18266;DHT22;9259;48.194;16.322;2022-12-07T01:44:18;5.10;99.90
18266;DHT22;9259;48.194;16.322;2022-12-07T01:46:49;5.10;99.90
18266;DHT22;9259;48.194;16.322;2022-12-07T01:49:29;5.10;99.90
18266;DHT22;9259;48.194;16.322;2022-12-07T01:52:07;5.10;99.90
18266;DHT22;9259;48.194;16.322;2022-12-07T01:54:41;5.10;99.90
18266;DHT22;9259;48.194;16.322;2022-12-07T01:57:11;5.10;99.90
18266;DHT22;9259;48.194;16.322;2022-12-07T01:59:41;5.00;99.90
18266;DHT22;9259;48.194;16.322;2022-12-07T02:02:13;5.00;99.90
18266;DHT22;9259;48.194;16.322;2022-12-07T02:04:46;5.00;99.90
18266;DHT22;9259;48.194;16.322;2022-12-07T02:07:14;5.10;99.90
18266;DHT22;9259;48.194;16.322;2022-12-07T02:09:43;5.10;99.90
18266;DHT22;9259;48.194;16.322;2022-12-07T02:12:12;5.10;99.90
18266;DHT22;9259;48.194;16.322;2022-12-07T02:14:40;5.10;99.90
18266;DHT22;9259;48.194;16.322;2022-12-07T02:17:14;5.00;99.90
18266;DHT22;9259;48.194;16.322;2022-12-07T02:20:12;5.00;99.90
18266;DHT22;9259;48.194;16.322;2022-12-07T02:26:35;5.00;99.90
18266;DHT22;9259;48.194;16.322;2022-12-07T02:29:19;5.00;99.90
18266;DHT22;9259;48.194;16.322;2022-12-07T02:31:56;5.00;99.90
18266;DHT22;9259;48.194;16.322;2022-12-07T02:34:37;5.00;99.90
18266;DHT22;9259;48.194;16.322;2022-12-07T02:37:18;5.00;99.90
18266;DHT22;9259;48.194;16.322;2022-12-07T02:39:52;5.00;99.90
18266;DHT22;9259;48.194;16.322;2022-12-07T02:42:26;5.00;99.90
18266;DHT22;9259;48.194;16.322;2022-12-07T02:45:00;5.00;99.90
18266;DHT22;9259;48.194;16.322;2022-12-07T02:47:29;4.90;99.90
18266;DHT22;9259;48.194;16.322;2022-12-07T02:49:59;5.00;99.90
18266;DHT22;9259;48.194;16.322;2022-12-07T02:52:27;5.00;99.90
18266;DHT22;9259;48.194;16.322;2022-12-07T02:54:55;4.90;99.90
18266;DHT22;9259;48.194;16.322;2022-12-07T02:57:36;4.90;99.90
18266;DHT22;9259;48.194;16.322;2022-12-07T03:00:15;4.90;99.90
18266;DHT22;9259;48.194;16.322;2022-12-07T03:02:51;4.90;99.90
18266;DHT22;9259;48.194;16.322;2022-12-07T03:05:35;5.00;99.90
18266;DHT22;9259;48.194;16.322;2022-12-07T03:08:30;4.90;99.90
18266;DHT22;9259;48.194;16.322;2022-12-07T03:11:13;4.90;99.90
18266;DHT22;9259;48.194;16.322;2022-12-07T03:13:47;4.90;99.90
18266;DHT22;9259;48.194;16.322;2022-12-07T03:16:21;5.00;99.90
18266;DHT22;9259;48.194;16.322;2022-12-07T03:18:53;4.90;99.90
18266;DHT22;9259;48.194;16.322;2022-12-07T03:21:26;4.90;99.90
18266;DHT22;9259;48.194;16.322;2022-12-07T03:23:56;4.90;99.90
18266;DHT22;9259;48.194;16.322;2022-12-07T03:26:31;4.90;99.90
18266;DHT22;9259;48.194;16.322;2022-12-07T03:29:02;5.00;99.90
18266;DHT22;9259;48.194;16.322;2022-12-07T03:31:36;5.00;99.90
18266;DHT22;9259;48.194;16.322;2022-12-07T03:34:10;5.00;99.90
18266;DHT22;9259;48.194;16.322;2022-12-07T03:36:42;5.00;99.90
18266;DHT22;9259;48.194;16.322;2022-12-07T03:39:17;5.00;99.90
18266;DHT22;9259;48.194;16.322;2022-12-07T03:41:49;4.90;99.90
18266;DHT22;9259;48.194;16.322;2022-12-07T03:44:18;4.90;99.90
18266;DHT22;9259;48.194;16.322;2022-12-07T03:46:52;5.00;99.90
18266;DHT22;9259;48.194;16.322;2022-12-07T03:49:28;4.90;99.90
18266;DHT22;9259;48.194;16.322;2022-12-07T03:52:04;5.00;99.90
18266;DHT22;9259;48.194;16.322;2022-12-07T03:54:41;5.00;99.90
18266;DHT22;9259;48.194;16.322;2022-12-07T03:57:13;5.00;99.90
18266;DHT22;9259;48.194;16.322;2022-12-07T03:59:42;5.00;99.90
18266;DHT22;9259;48.194;16.322;2022-12-07T04:02:13;4.90;99.90
18266;DHT22;9259;48.194;16.322;2022-12-07T04:04:41;5.00;99.90
18266;DHT22;9259;48.194;16.322;2022-12-07T04:07:10;5.00;99.90
18266;DHT22;9259;48.194;16.322;2022-12-07T04:09:39;5.00;99.90
18266;DHT22;9259;48.194;16.322;2022-12-07T04:12:07;5.00;99.90
18266;DHT22;9259;48.194;16.322;2022-12-07T04:14:35;4.90;99.90
18266;DHT22;9259;48.194;16.322;2022-12-07T04:17:03;4.90;99.90
18266;DHT22;9259;48.194;16.322;2022-12-07T04:19:33;5.00;99.90
18266;DHT22;9259;48.194;16.322;2022-12-07T04:22:03;5.00;99.90
18266;DHT22;9259;48.194;16.322;2022-12-07T04:24:32;4.90;99.90
18266;DHT22;9259;48.194;16.322;2022-12-07T04:27:00;4.90;99.90
18266;DHT22;9259;48.194;16.322;2022-12-07T04:29:28;5.00;99.90
18266;DHT22;9259;48.194;16.322;2022-12-07T04:31:56;4.90;99.90
18266;DHT22;9259;48.194;16.322;2022-12-07T04:34:24;4.90;99.90
18266;DHT22;9259;48.194;16.322;2022-12-07T04:36:53;4.90;99.90
18266;DHT22;9259;48.194;16.322;2022-12-07T04:39:22;4.90;99.90
18266;DHT22;9259;48.194;16.322;2022-12-07T04:41:51;4.90;99.90
18266;DHT22;9259;48.194;16.322;2022-12-07T04:44:21;4.90;99.90
18266;DHT22;9259;48.194;16.322;2022-12-07T04:46:49;4.90;99.90
18266;DHT22;9259;48.194;16.322;2022-12-07T04:49:17;4.90;99.90
18266;DHT22;9259;48.194;16.322;2022-12-07T04:51:46;4.90;99.90
18266;DHT22;9259;48.194;16.322;2022-12-07T04:54:16;4.90;99.90
18266;DHT22;9259;48.194;16.322;2022-12-07T04:56:44;4.90;99.90
18266;DHT22;9259;48.194;16.322;2022-12-07T04:59:14;4.90;99.90
18266;DHT22;9259;48.194;16.322;2022-12-07T05:01:43;4.90;99.90
18266;DHT22;9259;48.194;16.322;2022-12-07T05:04:11;4.90;99.90
18266;DHT22;9259;48.194;16.322;2022-12-07T05:06:39;5.00;99.90
18266;DHT22;9259;48.194;16.322;2022-12-07T05:09:07;5.00;99.90
18266;DHT22;9259;48.194;16.322;2022-12-07T05:11:37;5.00;99.90
18266;DHT22;9259;48.194;16.322;2022-12-07T05:14:11;5.00;99.90
18266;DHT22;9259;48.194;16.322;2022-12-07T05:16:41;5.00;99.90
18266;DHT22;9259;48.194;16.322;2022-12-07T05:19:09;5.00;99.90
18266;DHT22;9259;48.194;16.322;2022-12-07T05:21:38;5.00;99.90
18266;DHT22;9259;48.194;16.322;2022-12-07T05:24:07;5.00;99.90
18266;DHT22;9259;48.194;16.322;2022-12-07T05:26:38;5.00;99.90
18266;DHT22;9259;48.194;16.322;2022-12-07T05:29:06;5.00;99.90
18266;DHT22;9259;48.194;16.322;2022-12-07T05:31:34;5.10;99.90
18266;DHT22;9259;48.194;16.322;2022-12-07T05:34:02;5.10;99.90
18266;DHT22;9259;48.194;16.322;2022-12-07T05:36:30;5.00;99.90
18266;DHT22;9259;48.194;16.322;2022-12-07T05:38:58;5.10;99.90
18266;DHT22;9259;48.194;16.322;2022-12-07T05:41:26;5.10;99.90
18266;DHT22;9259;48.194;16.322;2022-12-07T05:44:13;5.10;99.90
18266;DHT22;9259;48.194;16.322;2022-12-07T05:46:41;5.10;99.90
18266;DHT22;9259;48.194;16.322;2022-12-07T05:49:09;5.10;99.90
18266;DHT22;9259;48.194;16.322;2022-12-07T05:51:37;5.10;99.90
18266;DHT22;9259;48.194;16.322;2022-12-07T05:54:05;5.10;99.90
18266;DHT22;9259;48.194;16.322;2022-12-07T05:56:33;5.10;99.90
18266;DHT22;9259;48.194;16.322;2022-12-07T05:59:01;5.10;99.90
18266;DHT22;9259;48.194;16.322;2022-12-07T06:01:48;5.10;99.90
18266;DHT22;9259;48.194;16.322;2022-12-07T06:04:16;5.10;99.90
18266;DHT22;9259;48.194;16.322;2022-12-07T06:06:44;5.10;99.90
18266;DHT22;9259;48.194;16.322;2022-12-07T06:09:12;5.10;99.90
18266;DHT22;9259;48.194;16.322;2022-12-07T06:11:40;5.10;99.90
18266;DHT22;9259;48.194;16.322;2022-12-07T06:14:26;5.10;99.90
18266;DHT22;9259;48.194;16.322;2022-12-07T06:16:55;5.10;99.90
18266;DHT22;9259;48.194;16.322;2022-12-07T06:19:23;5.10;99.90
18266;DHT22;9259;48.194;16.322;2022-12-07T06:21:52;5.10;99.90
18266;DHT22;9259;48.194;16.322;2022-12-07T06:24:20;5.10;99.90
18266;DHT22;9259;48.194;16.322;2022-12-07T06:26:48;5.20;99.90
18266;DHT22;9259;48.194;16.322;2022-12-07T06:29:17;5.40;99.90
18266;DHT22;9259;48.194;16.322;2022-12-07T06:31:45;5.50;99.90
18266;DHT22;9259;48.194;16.322;2022-12-07T06:34:16;5.30;99.90
18266;DHT22;9259;48.194;16.322;2022-12-07T06:36:45;5.20;99.90
18266;DHT22;9259;48.194;16.322;2022-12-07T06:39:20;5.20;99.90
18266;DHT22;9259;48.194;16.322;2022-12-07T06:41:50;5.20;99.90
18266;DHT22;9259;48.194;16.322;2022-12-07T06:44:19;5.20;99.90
18266;DHT22;9259;48.194;16.322;2022-12-07T06:46:48;5.20;99.90
18266;DHT22;9259;48.194;16.322;2022-12-07T06:49:17;5.20;99.90
18266;DHT22;9259;48.194;16.322;2022-12-07T06:51:45;5.10;99.90
18266;DHT22;9259;48.194;16.322;2022-12-07T06:54:15;5.10;99.90
18266;DHT22;9259;48.194;16.322;2022-12-07T06:56:43;5.10;99.90
18266;DHT22;9259;48.194;16.322;2022-12-07T06:59:11;5.10;99.90
18266;DHT22;9259;48.194;16.322;2022-12-07T07:01:39;5.10;99.90
18266;DHT22;9259;48.194;16.322;2022-12-07T07:04:07;5.20;99.90
18266;DHT22;9259;48.194;16.322;2022-12-07T07:06:36;5.20;99.90
18266;DHT22;9259;48.194;16.322;2022-12-07T07:09:04;5.20;99.90
18266;DHT22;9259;48.194;16.322;2022-12-07T07:11:32;5.20;99.90
18266;DHT22;9259;48.194;16.322;2022-12-07T07:14:00;5.20;99.90
18266;DHT22;9259;48.194;16.322;2022-12-07T07:16:29;5.30;99.90
18266;DHT22;9259;48.194;16.322;2022-12-07T07:18:57;5.30;99.90
18266;DHT22;9259;48.194;16.322;2022-12-07T07:21:25;5.40;99.90
18266;DHT22;9259;48.194;16.322;2022-12-07T07:23:55;5.40;99.90
18266;DHT22;9259;48.194;16.322;2022-12-07T07:26:23;5.40;99.90
18266;DHT22;9259;48.194;16.322;2022-12-07T07:28:51;5.40;99.90
18266;DHT22;9259;48.194;16.322;2022-12-07T07:31:19;5.30;99.90
18266;DHT22;9259;48.194;16.322;2022-12-07T07:33:47;5.40;99.90
18266;DHT22;9259;48.194;16.322;2022-12-07T07:36:15;5.40;99.90
18266;DHT22;9259;48.194;16.322;2022-12-07T07:38:43;5.40;99.90
18266;DHT22;9259;48.194;16.322;2022-12-07T07:41:12;5.50;99.90
18266;DHT22;9259;48.194;16.322;2022-12-07T07:43:40;5.40;99.90
18266;DHT22;9259;48.194;16.322;2022-12-07T07:46:08;5.40;99.90
18266;DHT22;9259;48.194;16.322;2022-12-07T07:48:35;5.40;99.90
18266;DHT22;9259;48.194;16.322;2022-12-07T07:51:05;5.30;99.90
18266;DHT22;9259;48.194;16.322;2022-12-07T07:53:34;5.30;99.90
18266;DHT22;9259;48.194;16.322;2022-12-07T07:56:02;5.30;99.90
18266;DHT22;9259;48.194;16.322;2022-12-07T07:58:32;5.30;99.90
18266;DHT22;9259;48.194;16.322;2022-12-07T08:01:03;5.40;99.90
18266;DHT22;9259;48.194;16.322;2022-12-07T08:03:32;5.40;99.90
18266;DHT22;9259;48.194;16.322;2022-12-07T08:06:01;5.30;99.90
18266;DHT22;9259;48.194;16.322;2022-12-07T08:08:30;5.30;99.90
18266;DHT22;9259;48.194;16.322;2022-12-07T08:10:58;5.40;99.90
18266;DHT22;9259;48.194;16.322;2022-12-07T08:13:27;5.40;99.90
18266;DHT22;9259;48.194;16.322;2022-12-07T08:15:57;5.50;99.90
18266;DHT22;9259;48.194;16.322;2022-12-07T08:18:25;5.50;99.90
18266;DHT22;9259;48.194;16.322;2022-12-07T08:20:58;5.50;99.90
18266;DHT22;9259;48.194;16.322;2022-12-07T08:23:27;5.50;99.90
18266;DHT22;9259;48.194;16.322;2022-12-07T08:25:57;5.60;99.90
18266;DHT22;9259;48.194;16.322;2022-12-07T08:28:28;5.60;99.90
18266;DHT22;9259;48.194;16.322;2022-12-07T08:31:00;5.70;99.90
18266;DHT22;9259;48.194;16.322;2022-12-07T08:33:28;5.70;99.90
18266;DHT22;9259;48.194;16.322;2022-12-07T08:36:00;5.90;99.90
18266;DHT22;9259;48.194;16.322;2022-12-07T08:38:28;6.00;99.90
18266;DHT22;9259;48.194;16.322;2022-12-07T08:40:57;6.00;99.90
18266;DHT22;9259;48.194;16.322;2022-12-07T08:43:25;6.10;99.90
18266;DHT22;9259;48.194;16.322;2022-12-07T08:46:05;6.10;99.90
18266;DHT22;9259;48.194;16.322;2022-12-07T08:48:37;6.00;99.90
18266;DHT22;9259;48.194;16.322;2022-12-07T08:51:07;5.90;99.90
18266;DHT22;9259;48.194;16.322;2022-12-07T08:53:37;6.00;99.90
18266;DHT22;9259;48.194;16.322;2022-12-07T08:56:06;6.10;99.90
18266;DHT22;9259;48.194;16.322;2022-12-07T08:58:35;6.00;99.90
18266;DHT22;9259;48.194;16.322;2022-12-07T09:01:05;5.90;99.90
18266;DHT22;9259;48.194;16.322;2022-12-07T09:03:33;6.00;99.90
18266;DHT22;9259;48.194;16.322;2022-12-07T09:06:01;5.90;99.90
18266;DHT22;9259;48.194;16.322;2022-12-07T09:08:32;6.00;99.90
18266;DHT22;9259;48.194;16.322;2022-12-07T09:11:02;5.90;99.90
18266;DHT22;9259;48.194;16.322;2022-12-07T09:13:30;5.80;99.90
18266;DHT22;9259;48.194;16.322;2022-12-07T09:15:58;5.70;99.90
18266;DHT22;9259;48.194;16.322;2022-12-07T09:18:28;6.00;99.90
18266;DHT22;9259;48.194;16.322;2022-12-07T09:20:56;6.30;99.90
18266;DHT22;9259;48.194;16.322;2022-12-07T09:23:24;6.50;99.90
18266;DHT22;9259;48.194;16.322;2022-12-07T09:25:52;7.20;99.90
18266;DHT22;9259;48.194;16.322;2022-12-07T09:28:20;7.80;99.90
18266;DHT22;9259;48.194;16.322;2022-12-07T09:30:48;7.80;99.90
18266;DHT22;9259;48.194;16.322;2022-12-07T09:33:16;8.20;99.90
18266;DHT22;9259;48.194;16.322;2022-12-07T14:37:51;9.20;99.90
18266;DHT22;9259;48.194;16.322;2022-12-07T14:40:22;5.70;99.90
18266;DHT22;9259;48.194;16.322;2022-12-07T14:42:56;5.70;99.90
18266;DHT22;9259;48.194;16.322;2022-12-07T14:45:24;5.60;99.90
18266;DHT22;9259;48.194;16.322;2022-12-07T14:47:54;5.50;99.90
18266;DHT22;9259;48.194;16.322;2022-12-07T14:50:22;5.50;99.90
18266;DHT22;9259;48.194;16.322;2022-12-07T14:52:54;5.50;99.90
18266;DHT22;9259;48.194;16.322;2022-12-07T14:55:25;5.50;99.90
18266;DHT22;9259;48.194;16.322;2022-12-07T14:57:54;5.40;99.90
18266;DHT22;9259;48.194;16.322;2022-12-07T15:00:25;5.50;99.90
18266;DHT22;9259;48.194;16.322;2022-12-07T15:02:56;5.50;99.90
18266;DHT22;9259;48.194;16.322;2022-12-07T15:05:24;5.40;99.90
18266;DHT22;9259;48.194;16.322;2022-12-07T15:07:52;5.40;99.90
18266;DHT22;9259;48.194;16.322;2022-12-07T15:10:22;5.50;99.90
18266;DHT22;9259;48.194;16.322;2022-12-07T15:12:55;5.40;99.90
18266;DHT22;9259;48.194;16.322;2022-12-07T15:15:44;5.40;99.90
18266;DHT22;9259;48.194;16.322;2022-12-07T15:18:14;5.40;99.90
18266;DHT22;9259;48.194;16.322;2022-12-07T15:20:42;5.40;99.90
18266;DHT22;9259;48.194;16.322;2022-12-07T15:23:10;5.40;99.90
18266;DHT22;9259;48.194;16.322;2022-12-07T15:25:40;5.40;99.90
18266;DHT22;9259;48.194;16.322;2022-12-07T15:28:08;5.30;99.90
18266;DHT22;9259;48.194;16.322;2022-12-07T15:30:37;5.30;99.90
18266;DHT22;9259;48.194;16.322;2022-12-07T15:33:05;5.30;99.90
18266;DHT22;9259;48.194;16.322;2022-12-07T15:35:38;5.30;99.90
18266;DHT22;9259;48.194;16.322;2022-12-07T15:38:06;5.30;99.90
18266;DHT22;9259;48.194;16.322;2022-12-07T15:40:34;5.30;99.90
18266;DHT22;9259;48.194;16.322;2022-12-07T15:43:02;5.20;99.90
18266;DHT22;9259;48.194;16.322;2022-12-07T15:45:30;5.20;99.90
18266;DHT22;9259;48.194;16.322;2022-12-07T15:47:57;5.20;99.90
18266;DHT22;9259;48.194;16.322;2022-12-07T15:50:25;5.20;99.90
18266;DHT22;9259;48.194;16.322;2022-12-07T15:52:55;5.20;99.90
18266;DHT22;9259;48.194;16.322;2022-12-07T15:55:22;5.20;99.90
18266;DHT22;9259;48.194;16.322;2022-12-07T15:57:50;5.20;99.90
18266;DHT22;9259;48.194;16.322;2022-12-07T16:00:19;5.10;99.90
18266;DHT22;9259;48.194;16.322;2022-12-07T16:02:47;5.00;99.90
18266;DHT22;9259;48.194;16.322;2022-12-07T16:05:15;5.00;99.90
18266;DHT22;9259;48.194;16.322;2022-12-07T16:07:43;5.00;99.90
18266;DHT22;9259;48.194;16.322;2022-12-07T16:10:16;4.90;99.90
18266;DHT22;9259;48.194;16.322;2022-12-07T16:12:44;4.90;99.90
18266;DHT22;9259;48.194;16.322;2022-12-07T16:15:12;4.80;99.90
18266;DHT22;9259;48.194;16.322;2022-12-07T16:17:40;4.80;99.90
18266;DHT22;9259;48.194;16.322;2022-12-07T16:20:09;4.70;99.90
18266;DHT22;9259;48.194;16.322;2022-12-07T16:22:37;4.70;99.90
18266;DHT22;9259;48.194;16.322;2022-12-07T16:25:06;4.70;99.90
18266;DHT22;9259;48.194;16.322;2022-12-07T16:27:35;4.70;99.90
18266;DHT22;9259;48.194;16.322;2022-12-07T16:30:04;4.60;99.90
18266;DHT22;9259;48.194;16.322;2022-12-07T16:32:33;4.70;99.90
18266;DHT22;9259;48.194;16.322;2022-12-07T16:35:01;4.60;99.90
18266;DHT22;9259;48.194;16.322;2022-12-07T16:37:29;4.60;99.90
18266;DHT22;9259;48.194;16.322;2022-12-07T16:39:57;4.70;99.90
18266;DHT22;9259;48.194;16.322;2022-12-07T16:42:25;4.80;99.90
18266;DHT22;9259;48.194;16.322;2022-12-07T16:44:55;4.70;99.90
18266;DHT22;9259;48.194;16.322;2022-12-07T16:47:23;4.60;99.90
18266;DHT22;9259;48.194;16.322;2022-12-07T16:49:51;4.60;99.90
18266;DHT22;9259;48.194;16.322;2022-12-07T16:52:20;4.50;99.90
18266;DHT22;9259;48.194;16.322;2022-12-07T16:54:49;4.50;99.90
18266;DHT22;9259;48.194;16.322;2022-12-07T16:57:17;4.40;99.90
18266;DHT22;9259;48.194;16.322;2022-12-07T16:59:45;4.40;99.90
18266;DHT22;9259;48.194;16.322;2022-12-07T17:02:18;4.50;99.90
18266;DHT22;9259;48.194;16.322;2022-12-07T17:04:46;4.40;99.90
18266;DHT22;9259;48.194;16.322;2022-12-07T17:07:14;4.40;99.90
18266;DHT22;9259;48.194;16.322;2022-12-07T17:09:42;4.40;99.90
18266;DHT22;9259;48.194;16.322;2022-12-07T17:12:10;4.40;99.90
18266;DHT22;9259;48.194;16.322;2022-12-07T17:14:38;4.40;99.90
18266;DHT22;9259;48.194;16.322;2022-12-07T17:17:25;4.40;99.90
18266;DHT22;9259;48.194;16.322;2022-12-07T17:19:53;4.40;99.90
18266;DHT22;9259;48.194;16.322;2022-12-07T17:22:21;4.40;99.90
18266;DHT22;9259;48.194;16.322;2022-12-07T17:24:49;4.40;99.90
18266;DHT22;9259;48.194;16.322;2022-12-07T17:27:17;4.40;99.90
18266;DHT22;9259;48.194;16.322;2022-12-07T17:29:45;4.40;99.90
18266;DHT22;9259;48.194;16.322;2022-12-07T17:32:14;4.40;99.90
18266;DHT22;9259;48.194;16.322;2022-12-07T17:34:43;4.40;99.90
18266;DHT22;9259;48.194;16.322;2022-12-07T17:37:11;4.40;99.90
18266;DHT22;9259;48.194;16.322;2022-12-07T17:39:40;4.40;99.90
18266;DHT22;9259;48.194;16.322;2022-12-07T17:42:08;4.40;99.90
18266;DHT22;9259;48.194;16.322;2022-12-07T17:44:54;4.40;99.90
18266;DHT22;9259;48.194;16.322;2022-12-07T17:47:22;4.40;99.90
18266;DHT22;9259;48.194;16.322;2022-12-07T17:49:52;4.30;99.90
18266;DHT22;9259;48.194;16.322;2022-12-07T17:52:20;4.30;99.90
18266;DHT22;9259;48.194;16.322;2022-12-07T17:55:07;4.30;99.90
18266;DHT22;9259;48.194;16.322;2022-12-07T17:57:35;4.30;99.90
18266;DHT22;9259;48.194;16.322;2022-12-07T18:00:04;4.20;99.90
18266;DHT22;9259;48.194;16.322;2022-12-07T18:02:34;4.20;99.90
18266;DHT22;9259;48.194;16.322;2022-12-07T18:05:04;4.10;99.90
18266;DHT22;9259;48.194;16.322;2022-12-07T18:07:33;4.20;99.90
18266;DHT22;9259;48.194;16.322;2022-12-07T18:10:03;4.10;99.90
18266;DHT22;9259;48.194;16.322;2022-12-07T18:12:35;4.10;99.90
18266;DHT22;9259;48.194;16.322;2022-12-07T18:15:04;4.10;99.90
18266;DHT22;9259;48.194;16.322;2022-12-07T18:17:33;4.10;99.90
18266;DHT22;9259;48.194;16.322;2022-12-07T18:20:02;4.10;99.90
18266;DHT22;9259;48.194;16.322;2022-12-07T18:22:33;4.10;99.90
18266;DHT22;9259;48.194;16.322;2022-12-07T18:25:07;4.10;99.90
18266;DHT22;9259;48.194;16.322;2022-12-07T18:27:36;4.20;99.90
18266;DHT22;9259;48.194;16.322;2022-12-07T18:30:05;4.20;99.90
18266;DHT22;9259;48.194;16.322;2022-12-07T18:32:35;4.20;99.90
18266;DHT22;9259;48.194;16.322;2022-12-07T18:35:08;4.30;99.90
18266;DHT22;9259;48.194;16.322;2022-12-07T18:37:37;4.30;99.90
18266;DHT22;9259;48.194;16.322;2022-12-07T18:40:15;4.30;99.90
18266;DHT22;9259;48.194;16.322;2022-12-07T18:42:43;4.40;99.90
18266;DHT22;9259;48.194;16.322;2022-12-07T18:45:12;4.40;99.90
18266;DHT22;9259;48.194;16.322;2022-12-07T18:47:41;4.40;99.90
18266;DHT22;9259;48.194;16.322;2022-12-07T18:50:11;4.40;99.90
18266;DHT22;9259;48.194;16.322;2022-12-07T18:52:39;4.40;99.90
18266;DHT22;9259;48.194;16.322;2022-12-07T18:55:08;4.40;99.90
18266;DHT22;9259;48.194;16.322;2022-12-07T18:57:39;4.40;99.90
18266;DHT22;9259;48.194;16.322;2022-12-07T19:00:08;4.50;99.90
18266;DHT22;9259;48.194;16.322;2022-12-07T19:02:38;4.50;99.90
18266;DHT22;9259;48.194;16.322;2022-12-07T19:05:07;4.50;99.90
18266;DHT22;9259;48.194;16.322;2022-12-07T19:07:44;4.50;99.90
18266;DHT22;9259;48.194;16.322;2022-12-07T19:10:14;4.50;99.90
18266;DHT22;9259;48.194;16.322;2022-12-07T19:12:43;4.60;99.90
18266;DHT22;9259;48.194;16.322;2022-12-07T19:15:13;4.60;99.90
18266;DHT22;9259;48.194;16.322;2022-12-07T19:17:44;4.60;99.90
18266;DHT22;9259;48.194;16.322;2022-12-07T19:20:13;4.60;99.90
18266;DHT22;9259;48.194;16.322;2022-12-07T19:22:48;4.60;99.90
18266;DHT22;9259;48.194;16.322;2022-12-07T19:25:16;4.70;99.90
18266;DHT22;9259;48.194;16.322;2022-12-07T19:27:46;4.70;99.90
18266;DHT22;9259;48.194;16.322;2022-12-07T19:30:15;4.60;99.90
18266;DHT22;9259;48.194;16.322;2022-12-07T19:32:44;4.70;99.90
18266;DHT22;9259;48.194;16.322;2022-12-07T19:35:15;4.70;99.90
18266;DHT22;9259;48.194;16.322;2022-12-07T19:37:44;4.70;99.90
18266;DHT22;9259;48.194;16.322;2022-12-07T19:40:16;4.70;99.90
18266;DHT22;9259;48.194;16.322;2022-12-07T19:42:45;4.70;99.90
18266;DHT22;9259;48.194;16.322;2022-12-07T19:45:14;4.70;99.90
18266;DHT22;9259;48.194;16.322;2022-12-07T19:47:42;4.70;99.90
18266;DHT22;9259;48.194;16.322;2022-12-07T19:50:11;4.80;99.90
18266;DHT22;9259;48.194;16.322;2022-12-07T19:52:40;4.80;99.90
18266;DHT22;9259;48.194;16.322;2022-12-07T19:55:12;4.80;99.90
18266;DHT22;9259;48.194;16.322;2022-12-07T19:57:41;4.80;99.90
18266;DHT22;9259;48.194;16.322;2022-12-07T20:00:11;4.70;99.90
18266;DHT22;9259;48.194;16.322;2022-12-07T20:02:44;4.80;99.90
18266;DHT22;9259;48.194;16.322;2022-12-07T20:05:14;4.80;99.90
18266;DHT22;9259;48.194;16.322;2022-12-07T20:07:45;4.80;99.90
18266;DHT22;9259;48.194;16.322;2022-12-07T20:10:16;4.70;99.90
18266;DHT22;9259;48.194;16.322;2022-12-07T20:12:45;4.70;99.90
18266;DHT22;9259;48.194;16.322;2022-12-07T20:15:31;4.80;99.90
18266;DHT22;9259;48.194;16.322;2022-12-07T20:18:02;4.70;99.90
18266;DHT22;9259;48.194;16.322;2022-12-07T20:20:31;4.70;99.90
18266;DHT22;9259;48.194;16.322;2022-12-07T20:23:00;4.80;99.90
18266;DHT22;9259;48.194;16.322;2022-12-07T20:25:34;4.80;99.90
18266;DHT22;9259;48.194;16.322;2022-12-07T20:28:03;4.80;99.90
18266;DHT22;9259;48.194;16.322;2022-12-07T20:30:33;4.80;99.90
18266;DHT22;9259;48.194;16.322;2022-12-07T20:33:03;4.80;99.90
18266;DHT22;9259;48.194;16.322;2022-12-07T20:35:32;4.80;99.90
18266;DHT22;9259;48.194;16.322;2022-12-07T20:38:03;4.70;99.90
18266;DHT22;9259;48.194;16.322;2022-12-07T20:40:37;4.70;99.90
18266;DHT22;9259;48.194;16.322;2022-12-07T20:43:07;4.70;99.90
18266;DHT22;9259;48.194;16.322;2022-12-07T20:45:42;4.70;99.90
18266;DHT22;9259;48.194;16.322;2022-12-07T20:48:13;4.70;99.90
18266;DHT22;9259;48.194;16.322;2022-12-07T20:50:41;4.60;99.90
18266;DHT22;9259;48.194;16.322;2022-12-07T20:53:10;4.60;99.90
18266;DHT22;9259;48.194;16.322;2022-12-07T20:55:39;4.40;99.90
18266;DHT22;9259;48.194;16.322;2022-12-07T20:58:08;4.30;99.90
18266;DHT22;9259;48.194;16.322;2022-12-07T21:00:37;4.30;99.90
18266;DHT22;9259;48.194;16.322;2022-12-07T21:03:06;4.30;99.90
18266;DHT22;9259;48.194;16.322;2022-12-07T21:05:34;4.40;99.90
18266;DHT22;9259;48.194;16.322;2022-12-07T21:08:02;4.40;99.90
18266;DHT22;9259;48.194;16.322;2022-12-07T21:10:31;4.30;99.90